createdAt,value
2018-03-26T00:02:34.918Z,3.31
2018-03-26T00:17:35.151Z,3.35
2018-03-26T00:32:35.170Z,3.22
2018-03-26T00:47:35.140Z,3.22
2018-03-26T01:02:34.670Z,3.26
2018-03-26T01:17:36.390Z,3.40
2018-03-26T01:32:34.326Z,3.59
2018-03-26T02:02:35.814Z,3.84
2018-03-26T02:17:38.071Z,3.46
2018-03-26T02:32:37.041Z,3.05
2018-03-26T02:47:37.528Z,2.91
2018-03-26T03:02:36.601Z,2.90
2018-03-26T03:17:36.028Z,2.97
2018-03-26T03:32:34.747Z,3.05
2018-03-26T04:17:34.477Z,3.38
2018-03-26T04:47:36.926Z,3.16
2018-03-26T05:02:34.958Z,3.24
2018-03-26T05:17:34.312Z,3.42
2018-03-26T05:32:34.211Z,3.47
2018-03-26T05:47:34.570Z,3.59
2018-03-26T06:02:35.063Z,4.01
2018-03-26T08:17:36.286Z,6.38
2018-03-26T08:47:35.312Z,7.03
2018-03-26T09:02:36.148Z,8.07
2018-03-26T09:17:35.050Z,7.96
2018-03-26T09:32:34.507Z,7.38
2018-03-26T09:47:34.860Z,7.07
2018-03-26T10:02:34.884Z,6.88
2018-03-26T10:17:35.727Z,6.91
2018-03-26T10:32:34.132Z,7.12
2018-03-26T10:47:34.662Z,7.06
2018-03-26T11:02:37.096Z,6.92
2018-03-26T11:17:34.457Z,6.96
2018-03-26T11:32:34.930Z,7.23
2018-03-26T11:47:34.321Z,7.46
2018-03-26T12:02:34.276Z,7.89
2018-03-26T12:17:34.668Z,7.98
2018-03-26T12:32:35.631Z,8.17
2018-03-26T12:47:36.581Z,8.08
2018-03-26T13:02:36.549Z,7.98
2018-03-26T13:17:37.391Z,7.90
2018-03-26T13:32:34.892Z,7.99
2018-03-26T13:47:34.893Z,7.82
2018-03-26T14:32:37.228Z,8.26
2018-03-26T15:02:35.141Z,8.47
2018-03-26T15:17:34.367Z,8.55
2018-03-26T15:32:34.314Z,8.61
2018-03-26T15:47:36.300Z,8.49
2018-03-26T16:02:52.342Z,7.88
2018-03-26T16:17:34.654Z,7.81
2018-03-26T16:32:36.614Z,7.81
2018-03-26T16:47:37.845Z,7.28
2018-03-26T17:17:40.104Z,7.20
2018-03-26T17:32:35.296Z,6.96
2018-03-26T17:47:41.770Z,6.96
2018-03-26T18:02:37.828Z,6.74
2018-03-26T18:17:37.130Z,6.67
2018-03-26T18:32:37.176Z,6.74
2018-03-26T18:47:37.958Z,6.73
2018-03-26T19:17:34.423Z,7.10
2018-03-26T19:32:36.973Z,7.17
2018-03-26T19:47:36.685Z,7.27
2018-03-26T20:02:44.428Z,7.38
2018-03-26T20:17:36.618Z,7.41
2018-03-26T20:32:36.556Z,7.42
2018-03-26T21:02:38.514Z,7.45
2018-03-26T21:17:36.800Z,7.49
2018-03-26T21:32:36.242Z,7.48
2018-03-26T21:47:34.761Z,7.44
2018-03-26T22:02:38.567Z,7.45
2018-03-26T22:17:37.016Z,7.49
2018-03-26T22:32:36.914Z,7.50
2018-03-26T23:02:34.900Z,7.41
2018-03-26T23:17:34.118Z,7.39
2018-03-26T23:32:37.196Z,7.40
